createdAt,value
2023-03-12T00:02:24.534Z,100195.19
2023-03-12T00:04:52.930Z,100201.13
2023-03-12T00:07:21.289Z,100196.88
2023-03-12T00:09:48.993Z,100205.38
2023-03-12T00:12:18.515Z,100206.25
2023-03-12T00:14:46.528Z,100203.72
2023-03-12T00:17:14.215Z,100202.00
2023-03-12T00:19:41.926Z,100207.97
2023-03-12T00:22:19.082Z,100201.16
2023-03-12T00:24:53.050Z,100202.88
2023-03-12T00:27:24.911Z,100210.53
2023-03-12T00:29:56.766Z,100207.13
2023-03-12T00:32:25.122Z,100211.38
2023-03-12T00:34:55.511Z,100210.50
2023-03-12T00:37:23.914Z,100216.47
2023-03-12T00:39:53.816Z,100220.75
2023-03-12T00:42:26.083Z,100219.00
2023-03-12T00:44:56.105Z,100218.13
2023-03-12T00:47:26.566Z,100213.91
2023-03-12T00:49:55.933Z,100209.66
2023-03-12T00:52:24.974Z,100210.53
2023-03-12T00:54:58.335Z,100208.81
2023-03-12T00:57:27.901Z,100210.50
2023-03-12T00:59:56.562Z,100205.44
2023-03-12T01:02:24.930Z,100207.13
2023-03-12T01:04:53.219Z,100210.53
2023-03-12T01:07:20.941Z,100211.41
2023-03-12T01:09:48.674Z,100199.50
2023-03-12T01:12:16.616Z,100207.13
2023-03-12T01:14:46.554Z,100205.44
2023-03-12T01:17:14.424Z,100198.66
2023-03-12T01:19:42.318Z,100200.34
2023-03-12T01:22:10.071Z,100203.75
2023-03-12T01:24:37.989Z,100205.47
2023-03-12T01:27:06.278Z,100206.31
2023-03-12T01:29:34.055Z,100209.69
2023-03-12T01:32:04.505Z,100213.94
2023-03-12T01:34:33.460Z,100215.69
2023-03-12T01:37:01.258Z,100214.81
2023-03-12T01:39:29.472Z,100212.25
2023-03-12T01:41:57.397Z,100209.72
2023-03-12T01:44:25.823Z,100210.56
2023-03-12T01:46:53.947Z,100197.81
2023-03-12T01:49:29.075Z,100194.38
2023-03-12T01:52:03.406Z,100190.13
2023-03-12T01:54:41.267Z,100189.28
2023-03-12T01:57:12.949Z,100185.88
2023-03-12T01:59:45.702Z,100180.75
2023-03-12T02:02:15.358Z,100179.03
2023-03-12T02:04:47.579Z,100179.06
2023-03-12T02:07:17.748Z,100173.06
2023-03-12T02:09:48.787Z,100171.38
2023-03-12T02:12:17.666Z,100169.69
2023-03-12T02:14:46.045Z,100179.06
2023-03-12T02:17:14.152Z,100173.09
2023-03-12T02:19:51.387Z,100168.84
2023-03-12T02:22:21.095Z,100159.47
2023-03-12T02:24:54.490Z,100160.34
2023-03-12T02:27:24.851Z,100153.50
2023-03-12T02:29:53.591Z,100161.16
2023-03-12T02:32:27.456Z,100153.50
2023-03-12T02:34:58.237Z,100160.31
2023-03-12T02:37:26.222Z,100156.91
2023-03-12T02:40:01.548Z,100153.53
2023-03-12T02:42:31.727Z,100155.22
2023-03-12T02:45:00.183Z,100155.22
2023-03-12T02:47:27.920Z,100151.81
2023-03-12T02:49:57.534Z,100155.22
2023-03-12T02:52:25.503Z,100151.78
2023-03-12T02:54:54.284Z,100145.81
2023-03-12T02:57:22.474Z,100142.41
2023-03-12T02:59:52.104Z,100144.09
2023-03-12T03:02:20.376Z,100141.56
2023-03-12T03:04:48.360Z,100142.38
2023-03-12T03:07:16.535Z,100141.53
2023-03-12T03:09:44.717Z,100145.75
2023-03-12T03:12:12.878Z,100144.94
2023-03-12T03:14:41.962Z,100142.34
2023-03-12T03:17:11.498Z,100150.00
2023-03-12T03:19:39.229Z,100147.47
2023-03-12T03:22:07.545Z,100138.91
2023-03-12T03:24:36.518Z,100145.72
2023-03-12T03:27:04.515Z,100151.69
2023-03-12T03:29:33.239Z,100149.16
2023-03-12T03:32:02.654Z,100153.44
2023-03-12T03:34:31.828Z,100141.47
2023-03-12T03:37:00.108Z,100142.31
2023-03-12T03:39:29.648Z,100139.75
2023-03-12T03:41:57.694Z,100143.13
2023-03-12T03:44:27.689Z,100144.84
2023-03-12T03:46:56.744Z,100144.84
2023-03-12T03:49:24.900Z,100142.28
2023-03-12T03:51:55.278Z,100142.25
2023-03-12T03:54:31.220Z,100149.13
2023-03-12T03:57:00.451Z,100135.47
2023-03-12T03:59:29.427Z,100120.09
2023-03-12T04:01:58.639Z,100121.78
2023-03-12T04:04:27.037Z,100112.41
2023-03-12T04:06:57.396Z,100125.19
2023-03-12T04:09:25.467Z,100115.78
2023-03-12T04:11:53.821Z,100119.19
2023-03-12T04:14:22.009Z,100113.22
2023-03-12T04:16:49.849Z,100120.06
2023-03-12T04:19:17.834Z,100118.38
2023-03-12T04:21:46.596Z,100118.38
2023-03-12T04:24:18.485Z,100117.53
2023-03-12T04:26:46.704Z,100125.22
2023-03-12T04:29:16.148Z,100126.91
2023-03-12T04:31:44.283Z,100121.81
2023-03-12T04:34:14.467Z,100117.47
2023-03-12T04:36:45.147Z,100120.00
2023-03-12T04:39:17.764Z,100120.00
2023-03-12T04:41:45.918Z,100132.78
2023-03-12T04:44:16.582Z,100128.53
2023-03-12T04:46:46.088Z,100112.28
2023-03-12T04:49:17.700Z,100108.84
2023-03-12T04:51:47.245Z,100102.81
2023-03-12T04:54:16.649Z,100105.31
2023-03-12T04:56:44.656Z,100101.97
2023-03-12T04:59:12.751Z,100094.34
2023-03-12T05:01:42.674Z,100093.53
2023-03-12T05:04:17.219Z,100097.84
2023-03-12T05:06:45.174Z,100097.81
2023-03-12T05:09:12.994Z,100094.31
2023-03-12T05:11:43.868Z,100094.16
2023-03-12T05:14:14.332Z,100093.25
2023-03-12T05:16:44.695Z,100091.47
2023-03-12T05:19:12.593Z,100097.44
2023-03-12T05:21:44.244Z,100097.41
2023-03-12T05:24:13.005Z,100103.44
2023-03-12T05:26:41.221Z,100095.75
2023-03-12T05:29:13.705Z,100096.53
2023-03-12T05:31:42.333Z,100100.09
2023-03-12T05:34:13.441Z,100092.22
2023-03-12T05:36:44.575Z,100096.56
2023-03-12T05:39:13.916Z,100096.63
2023-03-12T05:41:41.933Z,100090.72
2023-03-12T05:44:18.410Z,100101.75
2023-03-12T05:46:51.461Z,100089.84
2023-03-12T05:49:19.381Z,100091.63
2023-03-12T05:51:48.885Z,100095.91
2023-03-12T05:54:17.326Z,100099.38
2023-03-12T05:56:48.961Z,100097.59
2023-03-12T05:59:18.218Z,100095.09
2023-03-12T06:01:46.936Z,100095.09
2023-03-12T06:04:15.053Z,100095.97
2023-03-12T06:06:43.326Z,100106.19
2023-03-12T06:09:11.401Z,100096.84
2023-03-12T06:11:39.206Z,100096.91
2023-03-12T06:14:07.577Z,100095.13
2023-03-12T06:16:38.376Z,100101.09
2023-03-12T06:19:07.772Z,100097.66
2023-03-12T06:21:36.919Z,100101.84
2023-03-12T06:24:08.752Z,100095.81
2023-03-12T06:26:44.279Z,100097.50
2023-03-12T06:29:12.495Z,100093.25
2023-03-12T06:31:42.273Z,100090.72
2023-03-12T06:34:11.272Z,100081.19
2023-03-12T06:36:39.360Z,100082.06
2023-03-12T06:39:08.224Z,100077.91
2023-03-12T06:41:36.683Z,100083.88
2023-03-12T06:44:06.555Z,100070.19
2023-03-12T06:46:34.776Z,100062.59
2023-03-12T06:49:04.072Z,100071.94
2023-03-12T06:51:31.914Z,100081.25
2023-03-12T06:54:01.020Z,100075.38
2023-03-12T06:56:29.335Z,100077.06
2023-03-12T06:59:00.164Z,100077.13
2023-03-12T07:01:29.080Z,100077.13
2023-03-12T07:03:58.880Z,100077.94
2023-03-12T07:06:28.487Z,100071.09
2023-03-12T07:08:58.323Z,100066.84
2023-03-12T07:11:26.638Z,100066.81
2023-03-12T07:13:55.842Z,100076.09
2023-03-12T07:16:23.626Z,100065.91
2023-03-12T07:18:53.324Z,100072.69
2023-03-12T07:21:23.936Z,100080.38
2023-03-12T07:23:54.509Z,100064.91
2023-03-12T07:26:23.210Z,100067.50
2023-03-12T07:28:51.696Z,100064.00
2023-03-12T07:31:19.885Z,100069.03
2023-03-12T07:33:51.312Z,100065.59
2023-03-12T07:36:19.590Z,100069.84
2023-03-12T07:38:47.930Z,100076.63
2023-03-12T07:41:17.185Z,100075.81
2023-03-12T07:43:45.818Z,100069.81
2023-03-12T07:46:14.407Z,100079.94
2023-03-12T07:48:44.311Z,100077.56
2023-03-12T07:51:12.636Z,100087.72
2023-03-12T07:53:40.490Z,100081.75
2023-03-12T07:56:09.090Z,100077.38
2023-03-12T07:58:39.205Z,100073.09
2023-03-12T08:01:08.042Z,100080.81
2023-03-12T08:03:36.257Z,100080.00
2023-03-12T08:06:06.084Z,100089.38
2023-03-12T08:08:36.050Z,100079.97
2023-03-12T08:11:05.673Z,100078.19
2023-03-12T08:13:33.580Z,100074.69
2023-03-12T08:16:02.787Z,100079.75
2023-03-12T08:18:30.651Z,100091.00
2023-03-12T08:20:59.859Z,100086.69
2023-03-12T08:23:28.397Z,100094.34
2023-03-12T08:25:57.321Z,100093.44
2023-03-12T08:28:25.900Z,100095.91
2023-03-12T08:30:56.827Z,100095.19
2023-03-12T08:33:26.532Z,100073.72
2023-03-12T08:35:55.298Z,100075.88
2023-03-12T08:38:23.732Z,100083.66
2023-03-12T08:40:59.071Z,100083.63
2023-03-12T08:43:29.430Z,100077.69
2023-03-12T08:45:58.899Z,100074.00
2023-03-12T08:48:29.596Z,100080.06
2023-03-12T08:50:59.557Z,100074.97
2023-03-12T08:53:28.467Z,100060.16
2023-03-12T08:56:00.905Z,100066.91
2023-03-12T08:58:29.791Z,100066.50
2023-03-12T09:00:59.390Z,100057.81
2023-03-12T09:03:28.640Z,100066.66
2023-03-12T09:06:09.794Z,100064.03
2023-03-12T09:08:37.756Z,100074.22
2023-03-12T09:11:06.926Z,100063.00
2023-03-12T09:13:55.547Z,100069.75
2023-03-12T09:16:23.965Z,100075.16
2023-03-12T09:18:55.531Z,100074.25
2023-03-12T09:21:24.258Z,100069.75
2023-03-12T09:23:52.696Z,100070.81
2023-03-12T09:26:20.764Z,100074.16
2023-03-12T09:28:49.049Z,100067.03
2023-03-12T09:31:17.262Z,100065.38
2023-03-12T09:33:45.706Z,100063.41
2023-03-12T09:36:14.831Z,100055.91
2023-03-12T09:38:42.673Z,100057.44
2023-03-12T09:41:21.901Z,100070.28
2023-03-12T09:44:01.494Z,100071.69
2023-03-12T09:46:35.635Z,100067.44
2023-03-12T09:49:07.993Z,100077.78
2023-03-12T09:51:42.413Z,100064.22
2023-03-12T09:54:24.330Z,100069.09
2023-03-12T09:56:54.361Z,100068.53
2023-03-12T09:59:23.289Z,100076.44
2023-03-12T10:01:58.101Z,100082.53
2023-03-12T10:04:58.603Z,100083.16
2023-03-12T10:07:35.922Z,100091.56
2023-03-12T10:10:23.536Z,100090.44
2023-03-12T10:13:15.243Z,100080.78
2023-03-12T10:15:51.849Z,100068.91
2023-03-12T10:18:32.853Z,100073.59
2023-03-12T10:21:13.155Z,100066.47
2023-03-12T10:23:58.054Z,100073.44
2023-03-12T10:26:32.310Z,100071.69
2023-03-12T10:29:05.802Z,100072.50
2023-03-12T10:31:38.654Z,100072.50
2023-03-12T10:34:16.838Z,100083.91
2023-03-12T10:36:47.589Z,100071.53
2023-03-12T10:39:26.565Z,100065.22
2023-03-12T10:42:02.532Z,100063.38
2023-03-12T10:44:33.157Z,100049.00
2023-03-12T10:47:13.174Z,100047.03
2023-03-12T10:49:42.898Z,100045.00
2023-03-12T10:52:20.851Z,100043.47
2023-03-12T10:55:10.661Z,100037.56
2023-03-12T10:57:41.847Z,100049.53
2023-03-12T11:00:19.355Z,100050.19
2023-03-12T11:02:57.692Z,100053.03
2023-03-12T11:05:30.096Z,100040.94
2023-03-12T11:08:00.474Z,100038.31
2023-03-12T11:10:42.716Z,100039.19
2023-03-12T11:13:29.336Z,100034.25
2023-03-12T11:15:58.778Z,100036.66
2023-03-12T11:18:33.009Z,100037.41
2023-03-12T11:21:16.548Z,100032.28
2023-03-12T11:23:48.185Z,100032.66
2023-03-12T11:26:20.353Z,100052.22
2023-03-12T11:28:52.353Z,100056.88
2023-03-12T11:31:26.862Z,100049.25
2023-03-12T11:33:59.517Z,100050.31
2023-03-12T11:36:36.556Z,100039.84
2023-03-12T11:39:13.270Z,100026.88
2023-03-12T11:41:57.323Z,100019.22
2023-03-12T11:44:33.996Z,100012.81
2023-03-12T11:47:20.756Z,100001.44
2023-03-12T11:50:05.387Z,100005.72
2023-03-12T11:52:44.238Z,100004.97
2023-03-12T11:55:25.428Z,99997.78
2023-03-12T11:58:06.832Z,99994.38
2023-03-12T12:00:42.718Z,99984.69
2023-03-12T12:03:35.886Z,99981.59
2023-03-12T12:06:15.271Z,99967.63
2023-03-12T12:08:59.134Z,99958.56
2023-03-12T12:11:35.858Z,99940.28
2023-03-12T12:14:18.906Z,99934.81
2023-03-12T12:16:59.586Z,99935.31
2023-03-12T12:19:44.276Z,99938.09
2023-03-12T12:22:31.662Z,99941.75
2023-03-12T12:25:29.546Z,99933.63
2023-03-12T12:28:16.739Z,99939.75
2023-03-12T12:31:00.462Z,99946.53
2023-03-12T12:33:42.541Z,99947.91
2023-03-12T12:36:18.200Z,99937.97
2023-03-12T12:39:06.777Z,99954.69
2023-03-12T12:41:40.658Z,99945.00
2023-03-12T12:44:17.631Z,99947.19
2023-03-12T12:46:52.031Z,99940.94
2023-03-12T12:49:26.796Z,99947.00
2023-03-12T12:51:59.670Z,99947.38
2023-03-12T12:54:34.361Z,99939.69
2023-03-12T12:57:12.835Z,99933.88
2023-03-12T12:59:44.607Z,99922.00
2023-03-12T13:02:24.491Z,99918.22
2023-03-12T13:04:57.720Z,99911.69
2023-03-12T13:07:37.844Z,99914.22
2023-03-12T13:10:12.222Z,99911.88
2023-03-12T13:12:48.856Z,99903.56
2023-03-12T13:15:40.412Z,99895.41
2023-03-12T13:18:24.420Z,99888.94
2023-03-12T13:21:22.167Z,99893.03
2023-03-12T13:24:00.981Z,99888.84
2023-03-12T13:26:40.574Z,99886.13
2023-03-12T13:29:24.070Z,99880.63
2023-03-12T13:31:52.634Z,99860.31
2023-03-12T13:34:48.144Z,99867.94
2023-03-12T13:37:31.548Z,99854.75
2023-03-12T13:40:10.983Z,99854.78
2023-03-12T13:42:43.374Z,99864.56
2023-03-12T13:45:32.080Z,99853.34
2023-03-12T13:48:15.637Z,99853.22
2023-03-12T13:51:00.314Z,99858.78
2023-03-12T13:53:40.368Z,99854.50
2023-03-12T13:56:12.828Z,99852.00
2023-03-12T13:58:52.500Z,99870.66
2023-03-12T14:01:56.145Z,99874.63
2023-03-12T14:04:31.927Z,99881.16
2023-03-12T14:07:26.414Z,99876.66
2023-03-12T14:10:17.917Z,99872.16
2023-03-12T14:12:56.553Z,99883.28
2023-03-12T14:15:30.758Z,99893.59
2023-03-12T14:18:02.683Z,99892.84
2023-03-12T14:20:32.144Z,99895.41
2023-03-12T14:23:07.343Z,99900.16
2023-03-12T14:25:39.383Z,99898.81
2023-03-12T14:28:14.579Z,99894.00
2023-03-12T14:30:49.907Z,99892.56
2023-03-12T14:33:19.421Z,99886.09
2023-03-12T14:35:53.074Z,99878.28
2023-03-12T14:38:30.751Z,99882.00
2023-03-12T14:41:05.167Z,99875.78
2023-03-12T14:43:35.860Z,99876.88
2023-03-12T14:46:07.157Z,99879.88
2023-03-12T14:48:36.934Z,99880.88
2023-03-12T14:51:07.727Z,99880.78
2023-03-12T14:53:38.419Z,99878.44
2023-03-12T14:56:09.744Z,99875.41
2023-03-12T14:58:45.128Z,99878.69
2023-03-12T15:01:16.196Z,99875.66
2023-03-12T15:03:50.182Z,99858.78
2023-03-12T15:06:24.526Z,99867.72
2023-03-12T15:08:59.626Z,99877.25
2023-03-12T15:11:33.272Z,99858.50
2023-03-12T15:14:08.478Z,99861.84
2023-03-12T15:16:37.836Z,99855.16
2023-03-12T15:19:08.170Z,99857.34
2023-03-12T15:21:38.387Z,99858.44
2023-03-12T15:24:13.664Z,99845.63
2023-03-12T15:26:44.409Z,99845.16
2023-03-12T15:29:29.340Z,99837.41
2023-03-12T15:32:03.856Z,99842.78
2023-03-12T15:34:36.770Z,99849.19
2023-03-12T15:37:23.744Z,99846.50
2023-03-12T15:40:05.342Z,99861.41
2023-03-12T15:42:42.198Z,99856.44
2023-03-12T15:45:20.430Z,99860.97
2023-03-12T15:47:49.460Z,99861.75
2023-03-12T15:50:22.283Z,99862.31
2023-03-12T15:53:05.912Z,99863.09
2023-03-12T15:55:36.625Z,99856.09
2023-03-12T15:58:24.962Z,99853.34
2023-03-12T16:00:53.846Z,99857.88
2023-03-12T16:03:22.984Z,99855.50
2023-03-12T16:05:52.146Z,99862.25
2023-03-12T16:08:22.560Z,99870.44
2023-03-12T16:10:52.326Z,99874.56
2023-03-12T16:13:23.164Z,99874.22
2023-03-12T16:15:51.065Z,99877.09
2023-03-12T16:18:21.810Z,99884.75
2023-03-12T16:20:51.864Z,99871.13
2023-03-12T16:23:20.477Z,99875.88
2023-03-12T16:25:52.400Z,99871.16
2023-03-12T16:28:22.296Z,99876.59
2023-03-12T16:30:50.522Z,99865.97
2023-03-12T16:33:21.088Z,99864.13
2023-03-12T16:35:48.928Z,99868.97
2023-03-12T16:38:17.090Z,99876.66
2023-03-12T16:40:48.244Z,99878.06
2023-03-12T16:43:20.502Z,99874.56
2023-03-12T16:45:49.374Z,99870.72
2023-03-12T16:48:19.161Z,99885.66
2023-03-12T16:50:49.269Z,99899.66
2023-03-12T16:53:17.702Z,99897.56
2023-03-12T16:55:50.026Z,99899.84
2023-03-12T16:58:21.849Z,99902.88
2023-03-12T17:00:51.529Z,99907.78
2023-03-12T17:03:27.485Z,99918.97
2023-03-12T17:06:01.946Z,99919.44
2023-03-12T17:08:30.419Z,99927.00
2023-03-12T17:11:01.243Z,99930.66
2023-03-12T17:13:31.237Z,99934.81
2023-03-12T17:16:00.079Z,99934.56
2023-03-12T17:18:29.273Z,99953.88
2023-03-12T17:21:01.858Z,99943.59
2023-03-12T17:23:31.422Z,99942.88
2023-03-12T17:26:00.235Z,99951.94
2023-03-12T17:28:28.306Z,99945.06
2023-03-12T17:31:00.976Z,99956.16
2023-03-12T17:33:30.265Z,99958.28
2023-03-12T17:36:00.547Z,99965.75
2023-03-12T17:38:30.083Z,99968.84
2023-03-12T17:41:00.610Z,99965.88
2023-03-12T17:43:28.899Z,99970.19
2023-03-12T17:45:59.685Z,99959.38
2023-03-12T17:48:28.330Z,99969.53
2023-03-12T17:50:58.457Z,99971.94
2023-03-12T17:53:26.731Z,99973.69
2023-03-12T17:55:55.597Z,99988.22
2023-03-12T17:58:23.419Z,99979.38
2023-03-12T18:00:51.288Z,99989.19
2023-03-12T18:03:20.541Z,99985.47
2023-03-12T18:05:51.016Z,99992.00
2023-03-12T18:08:18.793Z,99987.38
2023-03-12T18:10:46.875Z,99986.88
2023-03-12T18:13:14.963Z,99979.78
2023-03-12T18:15:43.477Z,99976.38
2023-03-12T18:18:11.285Z,99968.03
2023-03-12T18:20:41.650Z,99968.69
2023-03-12T18:23:09.821Z,99973.81
2023-03-12T18:25:39.212Z,99959.47
2023-03-12T18:28:07.162Z,99959.56
2023-03-12T18:30:35.489Z,99959.47
2023-03-12T18:33:03.381Z,99956.13
2023-03-12T18:35:31.225Z,99966.09
2023-03-12T18:38:00.927Z,99960.59
2023-03-12T18:40:30.285Z,99960.97
2023-03-12T18:42:59.840Z,99965.38
2023-03-12T18:45:28.480Z,99971.63
2023-03-12T18:47:57.800Z,99975.75
2023-03-12T18:50:26.475Z,99959.84
2023-03-12T18:52:54.218Z,99964.19
2023-03-12T18:55:23.938Z,99976.13
2023-03-12T18:57:52.044Z,99980.47
2023-03-12T19:00:21.246Z,99964.91
2023-03-12T19:02:50.086Z,99973.88
2023-03-12T19:05:18.392Z,99977.53
2023-03-12T19:07:46.842Z,99971.78
2023-03-12T19:10:16.312Z,99983.56
2023-03-12T19:12:53.142Z,99977.16
2023-03-12T19:15:22.580Z,99980.09
2023-03-12T19:17:50.983Z,99990.09
2023-03-12T19:20:20.329Z,99993.47
2023-03-12T19:22:51.336Z,99994.03
2023-03-12T19:25:20.685Z,99996.31
2023-03-12T19:27:51.337Z,99996.53
2023-03-12T19:30:21.291Z,99998.31
2023-03-12T19:32:50.567Z,99991.63
2023-03-12T19:35:19.194Z,99987.19
2023-03-12T19:37:48.848Z,99992.22
2023-03-12T19:40:17.670Z,99993.34
2023-03-12T19:42:46.916Z,99994.00
2023-03-12T19:45:17.394Z,99994.13
2023-03-12T19:47:45.946Z,99991.97
2023-03-12T19:50:14.979Z,99987.16
2023-03-12T19:52:43.304Z,99981.56
2023-03-12T19:55:12.331Z,99978.00
2023-03-12T19:57:41.745Z,99995.06
2023-03-12T20:00:12.316Z,99984.66
2023-03-12T20:02:42.179Z,99983.25
2023-03-12T20:05:11.482Z,99994.84
2023-03-12T20:07:39.763Z,99995.16
2023-03-12T20:10:11.931Z,99988.84
2023-03-12T20:12:41.451Z,99995.53
2023-03-12T20:15:10.516Z,99989.84
2023-03-12T20:17:38.478Z,99987.81
2023-03-12T20:20:09.622Z,99986.69
2023-03-12T20:22:38.138Z,99983.31
2023-03-12T20:25:07.376Z,99978.81
2023-03-12T20:27:36.162Z,99988.50
2023-03-12T20:30:06.632Z,99988.84
2023-03-12T20:32:36.292Z,99986.63
2023-03-12T20:35:04.390Z,99981.72
2023-03-12T20:37:34.247Z,99978.66
2023-03-12T20:40:05.405Z,99971.66
2023-03-12T20:42:33.408Z,99964.72
2023-03-12T20:45:03.179Z,99966.38
2023-03-12T20:47:34.580Z,99971.66
2023-03-12T20:50:06.267Z,99974.59
2023-03-12T20:52:35.936Z,99963.19
2023-03-12T20:55:05.072Z,99964.84
2023-03-12T20:57:33.537Z,99963.91
2023-03-12T21:00:04.080Z,99968.81
2023-03-12T21:02:32.887Z,99966.16
2023-03-12T21:05:03.386Z,99967.00
2023-03-12T21:07:31.351Z,99961.03
2023-03-12T21:10:01.438Z,99959.22
2023-03-12T21:12:29.872Z,99958.50
2023-03-12T21:15:06.472Z,99955.06
2023-03-12T21:17:36.921Z,99958.38
2023-03-12T21:20:09.645Z,99948.13
2023-03-12T21:22:38.826Z,99948.00
2023-03-12T21:25:09.431Z,99944.38
2023-03-12T21:27:49.799Z,99943.38
2023-03-12T21:30:21.999Z,99940.03
2023-03-12T21:32:50.423Z,99938.97
2023-03-12T21:35:20.255Z,99929.34
2023-03-12T21:37:48.809Z,99935.53
2023-03-12T21:40:20.223Z,99920.94
2023-03-12T21:42:51.202Z,99919.22
2023-03-12T21:45:19.743Z,99932.97
2023-03-12T21:47:48.959Z,99927.16
2023-03-12T21:50:17.453Z,99925.91
2023-03-12T21:52:49.053Z,99925.84
2023-03-12T21:55:20.595Z,99926.53
2023-03-12T21:57:49.657Z,99925.84
2023-03-12T22:00:19.035Z,99915.03
2023-03-12T22:02:50.771Z,99912.38
2023-03-12T22:05:19.489Z,99906.50
2023-03-12T22:07:47.328Z,99901.53
2023-03-12T22:10:15.043Z,99906.78
2023-03-12T22:12:44.379Z,99901.97
2023-03-12T22:15:12.733Z,99903.31
2023-03-12T22:17:40.614Z,99894.72
2023-03-12T22:20:10.104Z,99885.22
2023-03-12T22:22:38.197Z,99874.69
2023-03-12T22:25:06.825Z,99880.88
2023-03-12T22:27:34.551Z,99890.78
2023-03-12T22:30:04.450Z,99892.69
2023-03-12T22:32:33.175Z,99895.63
2023-03-12T22:35:02.297Z,99888.00
2023-03-12T22:37:30.117Z,99884.19
2023-03-12T22:40:06.971Z,99881.63
2023-03-12T22:42:35.081Z,99883.47
2023-03-12T22:45:07.326Z,99875.53
2023-03-12T22:47:35.071Z,99871.44
2023-03-12T22:50:03.793Z,99865.72
2023-03-12T22:52:31.935Z,99861.41
2023-03-12T22:55:01.151Z,99856.38
2023-03-12T22:57:29.197Z,99851.91
2023-03-12T22:59:57.652Z,99854.38
2023-03-12T23:02:26.951Z,99847.44
2023-03-12T23:04:54.803Z,99847.28
2023-03-12T23:07:22.676Z,99853.47
2023-03-12T23:09:50.824Z,99851.03
2023-03-12T23:12:19.194Z,99849.44
2023-03-12T23:14:47.060Z,99857.28
2023-03-12T23:17:14.778Z,99843.91
2023-03-12T23:19:43.799Z,99846.50
2023-03-12T23:22:12.740Z,99844.09
2023-03-12T23:24:40.495Z,99844.41
2023-03-12T23:27:09.136Z,99841.72
2023-03-12T23:29:36.949Z,99837.53
2023-03-12T23:32:06.051Z,99835.25
2023-03-12T23:34:34.640Z,99828.25
2023-03-12T23:37:04.912Z,99837.59
2023-03-12T23:39:37.139Z,99827.00
2023-03-12T23:42:09.965Z,99813.44
2023-03-12T23:44:38.884Z,99809.53
2023-03-12T23:47:07.866Z,99803.59
2023-03-12T23:49:35.745Z,99794.50
2023-03-12T23:52:05.871Z,99787.50
2023-03-12T23:54:35.832Z,99795.69
2023-03-12T23:57:04.266Z,99786.75
2023-03-12T23:59:32.209Z,99788.72
